createdAt,value
2018-03-03T00:01:27.151Z,-2.40
2018-03-03T00:03:55.680Z,-2.50
2018-03-03T00:06:23.982Z,-2.50
2018-03-03T00:08:51.648Z,-2.50
2018-03-03T00:11:19.197Z,-2.50
2018-03-03T00:13:46.739Z,-2.50
2018-03-03T00:16:15.094Z,-2.50
2018-03-03T00:18:42.766Z,-2.50
2018-03-03T00:21:10.294Z,-2.50
2018-03-03T00:23:37.849Z,-2.50
2018-03-03T00:26:05.432Z,-2.50
2018-03-03T00:28:33.833Z,-2.50
2018-03-03T00:31:02.193Z,-2.40
2018-03-03T00:33:29.808Z,-2.50
2018-03-03T00:35:57.376Z,-2.50
2018-03-03T00:38:24.900Z,-2.50
2018-03-03T00:40:53.254Z,-2.50
2018-03-03T00:43:20.843Z,-2.50
2018-03-03T00:45:48.464Z,-2.50
2018-03-03T00:48:15.979Z,-2.50
2018-03-03T00:50:43.520Z,-2.50
2018-03-03T00:53:11.041Z,-2.40
2018-03-03T00:55:38.961Z,-2.50
2018-03-03T00:58:06.486Z,-2.40
2018-03-03T01:00:35.056Z,-2.40
2018-03-03T01:03:02.617Z,-2.40
2018-03-03T01:05:30.219Z,-2.50
2018-03-03T01:07:57.778Z,-2.40
2018-03-03T01:10:25.376Z,-2.40
2018-03-03T01:12:52.928Z,-2.50
2018-03-03T01:15:20.548Z,-2.50
2018-03-03T01:17:48.955Z,-2.40
2018-03-03T01:20:16.608Z,-2.40
2018-03-03T01:22:44.225Z,-2.40
2018-03-03T01:25:11.769Z,-2.40
2018-03-03T01:27:39.388Z,-2.40
2018-03-03T01:30:06.927Z,-2.40
2018-03-03T01:32:34.484Z,-2.40
2018-03-03T01:35:02.763Z,-2.40
2018-03-03T01:37:30.310Z,-2.40
2018-03-03T01:39:58.717Z,-2.40
2018-03-03T01:42:26.320Z,-2.40
2018-03-03T01:44:53.863Z,-2.40
2018-03-03T01:47:21.449Z,-2.40
2018-03-03T01:49:48.967Z,-2.40
2018-03-03T01:52:16.507Z,-2.30
2018-03-03T01:54:44.066Z,-2.40
2018-03-03T01:57:11.612Z,-2.30
2018-03-03T01:59:39.887Z,-2.30
2018-03-03T02:02:08.205Z,-2.30
2018-03-03T02:04:35.769Z,-2.30
2018-03-03T02:07:03.416Z,-2.30
2018-03-03T02:09:30.949Z,-2.30
2018-03-03T02:11:58.506Z,-2.30
2018-03-03T02:14:26.789Z,-2.30
2018-03-03T02:16:54.342Z,-2.30
2018-03-03T02:19:22.646Z,-2.30
2018-03-03T02:21:50.202Z,-2.30
2018-03-03T02:24:17.768Z,-2.30
2018-03-03T02:26:45.310Z,-2.30
2018-03-03T02:29:12.827Z,-2.30
2018-03-03T02:31:40.383Z,-2.30
2018-03-03T02:34:07.911Z,-2.30
2018-03-03T02:36:35.456Z,-2.30
2018-03-03T02:39:02.992Z,-2.30
2018-03-03T02:41:30.552Z,-2.30
2018-03-03T02:43:58.837Z,-2.30
2018-03-03T02:46:26.386Z,-2.30
2018-03-03T02:48:53.948Z,-2.30
2018-03-03T02:51:21.515Z,-2.30
2018-03-03T02:53:49.037Z,-2.20
2018-03-03T02:56:17.491Z,-2.20
2018-03-03T02:58:45.940Z,-2.20
2018-03-03T03:01:13.564Z,-2.20
2018-03-03T03:03:41.160Z,-2.10
2018-03-03T03:06:08.736Z,-2.10
2018-03-03T03:08:36.269Z,-2.10
2018-03-03T03:11:04.573Z,-2.20
2018-03-03T03:13:32.113Z,-2.20
2018-03-03T03:15:59.677Z,-2.20
2018-03-03T03:18:27.212Z,-2.10
2018-03-03T03:20:55.526Z,-2.10
2018-03-03T03:23:23.052Z,-2.20
2018-03-03T03:25:51.423Z,-2.20
2018-03-03T03:28:19.733Z,-2.20
2018-03-03T03:30:47.272Z,-2.20
2018-03-03T03:33:15.640Z,-2.10
2018-03-03T03:35:44.050Z,-2.10
2018-03-03T03:38:12.415Z,-2.10
2018-03-03T03:40:39.959Z,-2.10
2018-03-03T03:43:08.359Z,-2.10
2018-03-03T03:45:35.910Z,-2.10
2018-03-03T03:48:03.448Z,-2.10
2018-03-03T03:50:31.763Z,-2.10
2018-03-03T03:52:59.275Z,-2.10
2018-03-03T03:55:26.817Z,-2.10
2018-03-03T03:57:54.353Z,-2.00
2018-03-03T04:00:21.889Z,-2.00
2018-03-03T04:02:49.416Z,-2.00
2018-03-03T04:05:17.731Z,-1.70
2018-03-03T04:07:45.259Z,-1.70
2018-03-03T04:10:13.575Z,-1.90
2018-03-03T04:12:41.084Z,-1.90
2018-03-03T04:15:08.672Z,-1.90
2018-03-03T04:17:36.208Z,-1.90
2018-03-03T04:20:04.611Z,-1.90
2018-03-03T04:22:32.133Z,-1.90
2018-03-03T04:24:59.700Z,-1.90
2018-03-03T04:27:27.216Z,-1.90
2018-03-03T04:29:54.800Z,-1.90
2018-03-03T04:32:22.303Z,-1.90
2018-03-03T04:34:49.873Z,-1.90
2018-03-03T04:37:17.422Z,-1.90
2018-03-03T04:39:44.984Z,-1.90
2018-03-03T04:42:12.544Z,-1.90
2018-03-03T04:44:40.084Z,-1.90
2018-03-03T04:47:08.371Z,-1.90
2018-03-03T04:49:36.679Z,-1.90
2018-03-03T04:52:04.199Z,-1.90
2018-03-03T04:54:32.554Z,-1.80
2018-03-03T04:57:00.096Z,-1.90
2018-03-03T04:59:33.556Z,-1.90
2018-03-03T05:02:01.976Z,-1.90
2018-03-03T05:04:46.321Z,-1.90
2018-03-03T05:07:24.527Z,-1.90
2018-03-03T05:09:52.063Z,-1.90
2018-03-03T05:12:30.278Z,-1.90
2018-03-03T05:18:06.553Z,-1.90
2018-03-03T05:20:37.747Z,-1.90
2018-03-03T05:23:10.958Z,-1.90
2018-03-03T05:25:49.205Z,-1.80
2018-03-03T05:28:22.328Z,-1.80
2018-03-03T05:30:55.467Z,-1.80
2018-03-03T05:33:28.847Z,-1.80
2018-03-03T05:36:01.744Z,-1.80
2018-03-03T05:38:35.764Z,-1.90
2018-03-03T05:41:08.989Z,-1.90
2018-03-03T05:43:54.323Z,-1.80
2018-03-03T05:46:27.528Z,-1.90
2018-03-03T05:49:09.966Z,-1.80
2018-03-03T05:51:43.243Z,-1.80
2018-03-03T05:54:16.283Z,-1.90
2018-03-03T05:56:59.506Z,-1.90
2018-03-03T05:59:30.547Z,-1.90
2018-03-03T06:05:06.196Z,-1.90
2018-03-03T06:07:39.436Z,-1.80
2018-03-03T06:10:08.528Z,-1.80
2018-03-03T06:12:36.036Z,-1.80
2018-03-03T06:15:03.612Z,-1.80
2018-03-03T06:17:31.146Z,-1.80
2018-03-03T06:19:58.672Z,-1.80
2018-03-03T06:22:26.240Z,-1.80
2018-03-03T06:24:53.751Z,-1.80
2018-03-03T06:27:21.316Z,-1.80
2018-03-03T06:29:48.817Z,-1.80
2018-03-03T06:32:16.391Z,-1.80
2018-03-03T06:34:43.932Z,-1.80
2018-03-03T06:37:11.468Z,-1.70
2018-03-03T06:39:39.741Z,-1.80
2018-03-03T06:42:08.067Z,-1.80
2018-03-03T06:44:35.597Z,-1.80
2018-03-03T06:47:03.161Z,-1.70
2018-03-03T06:49:30.687Z,-1.70
2018-03-03T06:51:58.288Z,-1.70
2018-03-03T06:54:25.843Z,-1.70
2018-03-03T06:56:53.383Z,-1.70
2018-03-03T06:59:21.785Z,-1.70
2018-03-03T07:01:49.388Z,-1.70
2018-03-03T07:04:16.904Z,-1.70
2018-03-03T07:06:44.564Z,-1.70
2018-03-03T07:09:12.079Z,-1.70
2018-03-03T07:11:39.666Z,-1.70
2018-03-03T07:14:07.210Z,-1.70
2018-03-03T07:16:37.312Z,-1.70
2018-03-03T07:19:04.927Z,-1.60
2018-03-03T07:21:32.488Z,-1.60
2018-03-03T07:24:00.052Z,-1.60
2018-03-03T07:26:27.604Z,-1.60
2018-03-03T07:28:55.469Z,-1.60
2018-03-03T07:31:23.021Z,-1.50
2018-03-03T07:33:50.538Z,-1.50
2018-03-03T07:36:18.841Z,-1.50
2018-03-03T07:38:47.158Z,-1.50
2018-03-03T07:41:14.789Z,-1.50
2018-03-03T07:43:42.325Z,-1.50
2018-03-03T07:46:10.642Z,-1.50
2018-03-03T07:48:38.180Z,-1.50
2018-03-03T07:51:05.725Z,-1.40
2018-03-03T07:53:34.129Z,-1.30
2018-03-03T07:56:01.697Z,-1.40
2018-03-03T08:01:26.511Z,-1.30
2018-03-03T08:03:54.040Z,-1.30
2018-03-03T08:06:22.359Z,-1.30
2018-03-03T08:08:49.907Z,-1.30
2018-03-03T08:11:17.456Z,-1.30
2018-03-03T08:13:44.970Z,-1.30
2018-03-03T08:16:12.522Z,-1.20
2018-03-03T08:18:40.074Z,-1.20
2018-03-03T08:21:07.611Z,-1.10
2018-03-03T08:23:35.165Z,-1.10
2018-03-03T08:26:02.684Z,-1.10
2018-03-03T08:28:31.000Z,-1.00
2018-03-03T08:30:58.914Z,-1.00
2018-03-03T08:33:26.492Z,-1.00
2018-03-03T08:35:54.778Z,-0.90
2018-03-03T08:38:22.350Z,-0.90
2018-03-03T08:40:50.851Z,-0.80
2018-03-03T08:43:18.602Z,-0.80
2018-03-03T08:45:46.126Z,-0.60
2018-03-03T08:48:14.442Z,-0.40
2018-03-03T08:50:41.971Z,-0.50
2018-03-03T08:53:10.283Z,-0.30
2018-03-03T08:55:37.810Z,-0.30
2018-03-03T08:58:06.142Z,-0.20
2018-03-03T09:00:33.790Z,-0.20
2018-03-03T09:03:01.438Z,-0.20
2018-03-03T09:05:29.031Z,-0.10
2018-03-03T09:07:56.638Z,0.00
2018-03-03T09:10:25.185Z,0.10
2018-03-03T09:12:52.736Z,0.10
2018-03-03T09:15:20.346Z,0.20
2018-03-03T09:17:47.958Z,0.30
2018-03-03T09:20:15.490Z,0.40
2018-03-03T09:22:43.118Z,0.60
2018-03-03T09:25:10.638Z,0.70
2018-03-03T09:27:38.249Z,0.70
2018-03-03T09:30:05.779Z,0.80
2018-03-03T09:32:34.103Z,0.70
2018-03-03T09:35:01.640Z,0.80
2018-03-03T09:37:29.170Z,0.60
2018-03-03T09:39:57.506Z,0.60
2018-03-03T09:42:25.047Z,0.50
2018-03-03T09:44:52.599Z,0.60
2018-03-03T09:47:20.233Z,0.60
2018-03-03T09:49:48.572Z,1.00
2018-03-03T09:52:16.179Z,1.00
2018-03-03T09:54:43.754Z,1.30
2018-03-03T09:57:12.064Z,1.70
2018-03-03T09:59:39.631Z,1.80
2018-03-03T10:02:07.235Z,1.90
2018-03-03T10:04:34.776Z,2.00
2018-03-03T10:07:03.240Z,2.20
2018-03-03T10:09:30.894Z,2.10
2018-03-03T10:11:58.431Z,2.00
2018-03-03T10:14:26.143Z,1.90
2018-03-03T10:16:54.543Z,1.90
2018-03-03T10:19:22.080Z,1.80
2018-03-03T10:21:49.654Z,1.80
2018-03-03T10:24:18.988Z,1.60
2018-03-03T10:26:47.113Z,1.80
2018-03-03T10:29:17.099Z,2.50
2018-03-03T10:31:45.764Z,2.50
2018-03-03T10:34:14.531Z,3.20
2018-03-03T10:36:42.097Z,3.30
2018-03-03T10:39:10.380Z,3.50
2018-03-03T10:41:37.939Z,3.40
2018-03-03T10:44:06.084Z,3.60
2018-03-03T10:46:35.320Z,3.80
2018-03-03T10:49:02.839Z,3.80
2018-03-03T10:51:31.213Z,4.20
2018-03-03T10:53:59.728Z,4.60
2018-03-03T10:56:27.371Z,4.60
2018-03-03T10:58:54.923Z,4.80
2018-03-03T11:01:23.368Z,5.10
2018-03-03T11:03:50.870Z,5.10
2018-03-03T11:06:18.418Z,4.90
2018-03-03T11:08:46.946Z,4.40
2018-03-03T11:11:16.720Z,4.30
2018-03-03T11:13:55.863Z,4.40
2018-03-03T11:16:24.279Z,4.30
2018-03-03T11:18:51.837Z,4.50
2018-03-03T11:21:19.924Z,4.70
2018-03-03T11:23:47.450Z,5.00
2018-03-03T11:26:15.008Z,4.80
2018-03-03T11:28:44.610Z,4.60
2018-03-03T11:31:12.272Z,4.70
2018-03-03T11:33:39.811Z,4.40
2018-03-03T11:36:07.453Z,4.20
2018-03-03T11:38:37.760Z,3.90
2018-03-03T11:41:06.104Z,3.90
2018-03-03T11:43:34.380Z,3.90
2018-03-03T11:46:01.948Z,3.50
2018-03-03T11:48:29.554Z,3.40
2018-03-03T11:50:57.936Z,3.20
2018-03-03T11:53:26.340Z,3.20
2018-03-03T11:55:54.424Z,3.20
2018-03-03T11:58:22.032Z,3.10
2018-03-03T12:00:49.583Z,3.00
2018-03-03T12:03:17.143Z,2.80
2018-03-03T12:05:44.740Z,2.50
2018-03-03T12:08:12.293Z,2.40
2018-03-03T12:10:39.863Z,2.50
2018-03-03T12:13:07.382Z,2.50
2018-03-03T12:15:34.999Z,2.30
2018-03-03T12:18:02.559Z,2.40
2018-03-03T12:20:30.325Z,2.30
2018-03-03T12:22:57.976Z,2.40
2018-03-03T12:25:25.648Z,2.40
2018-03-03T12:27:53.198Z,2.30
2018-03-03T12:30:20.771Z,2.30
2018-03-03T12:32:49.021Z,2.30
2018-03-03T12:35:16.578Z,2.30
2018-03-03T12:37:44.976Z,2.40
2018-03-03T12:40:12.536Z,2.40
2018-03-03T12:42:40.080Z,2.30
2018-03-03T12:45:07.628Z,2.40
2018-03-03T12:47:35.225Z,2.40
2018-03-03T12:50:03.491Z,2.40
2018-03-03T12:52:31.026Z,2.40
2018-03-03T12:54:58.656Z,2.40
2018-03-03T12:57:26.280Z,2.40
2018-03-03T12:59:53.835Z,2.50
2018-03-03T13:02:21.372Z,2.50
2018-03-03T13:04:48.931Z,2.60
2018-03-03T13:07:16.516Z,2.50
2018-03-03T13:09:54.021Z,2.40
2018-03-03T13:12:21.573Z,2.40
2018-03-03T13:14:49.083Z,2.40
2018-03-03T13:17:17.507Z,2.30
2018-03-03T13:19:45.088Z,2.30
2018-03-03T13:22:12.666Z,2.40
2018-03-03T13:24:40.246Z,2.50
2018-03-03T13:27:08.569Z,2.70
2018-03-03T13:29:37.401Z,2.70
2018-03-03T13:32:05.739Z,2.90
2018-03-03T13:34:33.248Z,2.90
2018-03-03T13:37:01.589Z,2.90
2018-03-03T13:39:29.139Z,2.90
2018-03-03T13:41:56.695Z,3.00
2018-03-03T13:44:24.276Z,3.10
2018-03-03T13:46:51.838Z,3.20
2018-03-03T13:49:19.384Z,3.10
2018-03-03T13:51:46.887Z,3.10
2018-03-03T13:54:15.250Z,3.10
2018-03-03T13:56:43.530Z,3.20
2018-03-03T13:59:11.938Z,3.20
2018-03-03T14:01:39.772Z,3.20
2018-03-03T14:04:07.366Z,3.20
2018-03-03T14:06:34.925Z,3.30
2018-03-03T14:09:02.428Z,3.30
2018-03-03T14:11:30.040Z,3.40
2018-03-03T14:13:57.542Z,3.50
2018-03-03T14:16:25.910Z,3.60
2018-03-03T14:18:53.545Z,3.70
2018-03-03T14:21:23.226Z,3.60
2018-03-03T14:23:52.390Z,3.60
2018-03-03T14:26:20.085Z,3.60
2018-03-03T14:28:47.690Z,3.60
2018-03-03T14:31:16.116Z,3.60
2018-03-03T14:33:46.446Z,3.60
2018-03-03T14:36:13.987Z,3.60
2018-03-03T14:38:42.435Z,3.60
2018-03-03T14:41:10.185Z,3.60
2018-03-03T14:43:37.745Z,3.60
2018-03-03T14:46:05.307Z,3.60
2018-03-03T14:48:32.840Z,3.60
2018-03-03T14:51:01.258Z,3.50
2018-03-03T14:53:29.587Z,3.50
2018-03-03T14:55:57.999Z,3.50
2018-03-03T14:58:25.612Z,3.50
2018-03-03T15:00:53.248Z,3.50
2018-03-03T15:03:23.950Z,3.50
2018-03-03T15:08:25.490Z,3.50
2018-03-03T15:10:54.433Z,3.50
2018-03-03T15:13:21.975Z,3.50
2018-03-03T15:15:49.567Z,3.40
2018-03-03T15:18:17.375Z,3.40
2018-03-03T15:20:45.686Z,3.30
2018-03-03T15:23:13.224Z,3.30
2018-03-03T15:25:40.876Z,3.20
2018-03-03T15:28:09.220Z,3.10
2018-03-03T15:30:36.759Z,3.10
2018-03-03T15:33:04.327Z,3.10
2018-03-03T15:35:43.845Z,3.00
2018-03-03T15:38:11.383Z,2.90
2018-03-03T15:40:38.955Z,2.90
2018-03-03T15:43:06.607Z,2.80
2018-03-03T15:45:35.241Z,2.80
2018-03-03T15:48:02.824Z,2.80
2018-03-03T15:50:31.169Z,2.70
2018-03-03T15:52:58.741Z,2.70
2018-03-03T15:55:26.382Z,2.70
2018-03-03T15:57:54.012Z,2.70
2018-03-03T16:00:21.571Z,2.70
2018-03-03T16:02:49.104Z,2.70
2018-03-03T16:05:17.436Z,2.70
2018-03-03T16:07:45.026Z,2.60
2018-03-03T16:10:12.646Z,2.70
2018-03-03T16:12:40.212Z,2.70
2018-03-03T16:15:07.903Z,2.70
2018-03-03T16:17:35.443Z,2.50
2018-03-03T16:20:03.107Z,2.50
2018-03-03T16:22:30.720Z,2.50
2018-03-03T16:24:58.405Z,2.40
2018-03-03T16:27:26.052Z,2.40
2018-03-03T16:29:53.591Z,2.40
2018-03-03T16:32:21.983Z,2.30
2018-03-03T16:34:49.625Z,2.30
2018-03-03T16:37:17.998Z,2.30
2018-03-03T16:39:47.196Z,2.20
2018-03-03T16:42:15.288Z,2.20
2018-03-03T16:44:42.816Z,2.10
2018-03-03T16:47:10.423Z,2.10
2018-03-03T16:49:38.018Z,2.10
2018-03-03T16:52:05.535Z,2.10
2018-03-03T16:54:33.100Z,2.00
2018-03-03T16:57:00.624Z,2.00
2018-03-03T16:59:29.021Z,2.00
2018-03-03T17:01:56.525Z,1.90
2018-03-03T17:04:24.098Z,1.90
2018-03-03T17:06:51.976Z,1.90
2018-03-03T17:09:19.513Z,1.90
2018-03-03T17:11:47.132Z,1.80
2018-03-03T17:14:14.729Z,1.80
2018-03-03T17:16:42.296Z,1.80
2018-03-03T17:19:09.848Z,1.80
2018-03-03T17:21:37.384Z,1.70
2018-03-03T17:24:05.060Z,1.70
2018-03-03T17:26:32.671Z,1.60
2018-03-03T17:29:00.990Z,1.50
2018-03-03T17:31:28.534Z,1.50
2018-03-03T17:33:56.086Z,1.50
2018-03-03T17:36:24.476Z,1.40
2018-03-03T17:38:52.010Z,1.40
2018-03-03T17:41:20.290Z,1.30
2018-03-03T17:43:48.586Z,1.30
2018-03-03T17:46:16.109Z,1.30
2018-03-03T17:48:44.491Z,1.20
2018-03-03T17:51:12.231Z,1.20
2018-03-03T17:53:39.818Z,1.20
2018-03-03T17:56:07.315Z,1.20
2018-03-03T17:58:34.971Z,1.10
2018-03-03T18:01:02.520Z,1.10
2018-03-03T18:03:30.077Z,1.10
2018-03-03T18:05:57.617Z,1.00
2018-03-03T18:08:26.183Z,1.00
2018-03-03T18:10:57.727Z,1.00
2018-03-03T18:13:31.983Z,1.00
2018-03-03T18:15:59.502Z,1.00
2018-03-03T18:18:32.245Z,1.00
2018-03-03T18:20:59.789Z,1.00
2018-03-03T18:23:27.327Z,1.00
2018-03-03T18:25:55.644Z,1.10
2018-03-03T18:28:23.789Z,1.00
2018-03-03T18:30:51.338Z,1.10
2018-03-03T18:33:19.680Z,1.20
2018-03-03T18:35:47.507Z,1.20
2018-03-03T18:38:15.185Z,1.20
2018-03-03T18:40:42.704Z,1.20
2018-03-03T18:43:11.009Z,1.20
2018-03-03T18:45:40.503Z,1.20
2018-03-03T18:48:08.044Z,1.20
2018-03-03T18:50:36.379Z,1.20
2018-03-03T18:53:04.035Z,1.20
2018-03-03T18:55:32.453Z,1.20
2018-03-03T18:58:00.787Z,1.30
2018-03-03T19:00:29.156Z,1.30
2018-03-03T19:02:56.792Z,1.20
2018-03-03T19:05:27.321Z,1.20
2018-03-03T19:07:55.826Z,1.20
2018-03-03T19:10:23.390Z,1.20
2018-03-03T19:12:50.943Z,1.20
2018-03-03T19:15:19.391Z,1.20
2018-03-03T19:17:48.411Z,1.20
2018-03-03T19:20:15.951Z,1.20
2018-03-03T19:22:43.534Z,1.20
2018-03-03T19:25:11.188Z,1.20
2018-03-03T19:27:38.787Z,1.30
2018-03-03T19:30:06.958Z,1.30
2018-03-03T19:32:34.608Z,1.30
2018-03-03T19:35:02.141Z,1.20
2018-03-03T19:37:29.689Z,1.30
2018-03-03T19:39:57.232Z,1.30
2018-03-03T19:42:27.524Z,1.30
2018-03-03T19:44:55.063Z,1.30
2018-03-03T19:47:22.609Z,1.30
2018-03-03T19:49:50.177Z,1.40
2018-03-03T19:52:17.831Z,1.40
2018-03-03T19:54:45.489Z,1.30
2018-03-03T19:57:13.066Z,1.30
2018-03-03T19:59:41.517Z,1.30
2018-03-03T20:02:10.711Z,1.30
2018-03-03T20:04:38.263Z,1.40
2018-03-03T20:07:06.573Z,1.30
2018-03-03T20:09:34.176Z,1.30
2018-03-03T20:12:02.286Z,1.30
2018-03-03T20:14:29.866Z,1.30
2018-03-03T20:16:58.354Z,1.30
2018-03-03T20:19:25.996Z,1.30
2018-03-03T20:21:53.573Z,1.30
2018-03-03T20:24:21.121Z,1.30
2018-03-03T20:26:48.764Z,1.30
2018-03-03T20:29:16.683Z,1.30
2018-03-03T20:31:44.237Z,1.30
2018-03-03T20:34:11.801Z,1.30
2018-03-03T20:36:39.379Z,1.30
2018-03-03T20:39:07.536Z,1.30
2018-03-03T20:41:35.138Z,1.30
2018-03-03T20:44:02.831Z,1.30
2018-03-03T20:46:31.392Z,1.20
2018-03-03T20:48:59.956Z,1.20
2018-03-03T20:51:27.623Z,1.10
2018-03-03T20:53:56.037Z,1.10
2018-03-03T20:56:23.674Z,1.00
2018-03-03T20:58:52.291Z,1.00
2018-03-03T21:01:19.905Z,1.10
2018-03-03T21:03:48.249Z,1.00
2018-03-03T21:06:16.148Z,1.00
2018-03-03T21:08:44.788Z,0.90
2018-03-03T21:11:15.969Z,0.90
2018-03-03T21:13:43.472Z,0.90
2018-03-03T21:16:11.062Z,0.90
2018-03-03T21:18:38.607Z,0.90
2018-03-03T21:21:07.439Z,0.90
2018-03-03T21:23:35.880Z,0.90
2018-03-03T21:26:03.516Z,0.90
2018-03-03T21:28:31.080Z,0.90
2018-03-03T21:30:58.655Z,0.80
2018-03-03T21:33:26.212Z,0.80
2018-03-03T21:35:53.873Z,0.80
2018-03-03T21:38:21.413Z,0.80
2018-03-03T21:40:48.966Z,0.80
2018-03-03T21:43:16.509Z,0.80
2018-03-03T21:45:44.928Z,0.80
2018-03-03T21:48:12.441Z,0.80
2018-03-03T21:50:40.756Z,0.80
2018-03-03T21:53:08.279Z,0.80
2018-03-03T21:55:36.680Z,0.80
2018-03-03T21:58:04.208Z,0.80
2018-03-03T22:00:32.519Z,0.80
2018-03-03T22:03:00.043Z,0.70
2018-03-03T22:05:28.363Z,0.80
2018-03-03T22:07:55.991Z,0.80
2018-03-03T22:10:24.398Z,0.80
2018-03-03T22:12:51.921Z,0.80
2018-03-03T22:15:20.271Z,0.80
2018-03-03T22:17:48.859Z,0.80
2018-03-03T22:20:16.555Z,0.80
2018-03-03T22:22:44.050Z,0.80
2018-03-03T22:25:11.618Z,0.90
2018-03-03T22:27:39.135Z,0.90
2018-03-03T22:30:07.533Z,0.90
2018-03-03T22:32:35.126Z,0.90
2018-03-03T22:35:02.712Z,0.90
2018-03-03T22:37:30.242Z,0.90
2018-03-03T22:39:57.876Z,0.90
2018-03-03T22:42:25.398Z,0.90
2018-03-03T22:44:53.720Z,0.90
2018-03-03T22:47:21.257Z,0.90
2018-03-03T22:49:48.929Z,1.00
2018-03-03T22:52:16.472Z,1.00
2018-03-03T22:54:44.790Z,1.00
2018-03-03T22:57:12.363Z,1.00
2018-03-03T22:59:39.917Z,1.00
2018-03-03T23:02:07.428Z,1.10
2018-03-03T23:04:35.765Z,1.00
2018-03-03T23:07:04.086Z,1.10
2018-03-03T23:09:31.622Z,1.10
2018-03-03T23:11:59.935Z,1.10
2018-03-03T23:14:27.457Z,1.10
2018-03-03T23:16:55.020Z,1.10
2018-03-03T23:19:23.300Z,1.20
2018-03-03T23:21:51.608Z,1.20
2018-03-03T23:24:19.168Z,1.20
2018-03-03T23:26:46.727Z,1.20
2018-03-03T23:29:14.283Z,1.20
2018-03-03T23:31:41.836Z,1.20
2018-03-03T23:34:09.378Z,1.20
2018-03-03T23:36:37.814Z,1.30
2018-03-03T23:39:05.338Z,1.30
2018-03-03T23:41:34.391Z,1.30
2018-03-03T23:44:02.705Z,1.30
2018-03-03T23:46:30.254Z,1.30
2018-03-03T23:48:58.655Z,1.40
2018-03-03T23:51:26.200Z,1.40
2018-03-03T23:53:53.719Z,1.40
2018-03-03T23:56:22.015Z,1.50
2018-03-03T23:58:50.312Z,1.50
